Terminal Aerodrome Forecast
Issued by NWS

Home | Current Version | Previous Version | Text Only | Print | Product List | Glossary On
Versions: 1 2 3 4 5 6 7 8 9 10 11 12 13 14 15 16 17
000
FTUS42 KTBW 220500 RRA
TAFPGD
TAF
KPGD 220541Z 2206/2306 VRB03KT P6SM BKN250
     FM221500 07005KT P6SM SCT040 BKN250
     FM221800 05004KT P6SM VCTS SCT035CB BKN050
     FM222100 26005KT P6SM SCT035 BKN050
     FM230200 06006KT P6SM SCT040 BKN200=

USA.gov is the U.S. government's official web portal to all federal, state and local government web resources and services.